createdAt,value
2022-08-17T00:02:26.755Z,99658.78
2022-08-17T00:05:33.289Z,99661.53
2022-08-17T00:08:40.519Z,99664.88
2022-08-17T00:12:34.686Z,99660.56
2022-08-17T00:15:08.296Z,99660.38
2022-08-17T00:18:53.744Z,99658.03
2022-08-17T00:22:29.402Z,99662.16
2022-08-17T00:25:03.050Z,99662.72
2022-08-17T00:28:06.263Z,99658.63
2022-08-17T00:31:10.765Z,99655.72
2022-08-17T00:34:13.265Z,99660.31
2022-08-17T00:37:16.271Z,99665.87
2022-08-17T00:40:19.933Z,99659.91
2022-08-17T00:43:33.368Z,99660.09
2022-08-17T00:46:41.109Z,99652.69
2022-08-17T00:49:43.910Z,99652.00
2022-08-17T00:52:56.497Z,99651.69
2022-08-17T00:56:05.980Z,99653.16
2022-08-17T00:59:09.291Z,99651.28
2022-08-17T01:02:14.957Z,99644.16
2022-08-17T01:05:21.278Z,99641.91
2022-08-17T01:08:26.567Z,99642.59
2022-08-17T01:11:30.635Z,99647.88
2022-08-17T01:14:33.464Z,99654.22
2022-08-17T01:17:36.218Z,99660.28
2022-08-17T01:20:49.087Z,99656.38
2022-08-17T01:23:51.698Z,99659.41
2022-08-17T01:26:56.745Z,99657.53
2022-08-17T01:30:03.998Z,99658.63
2022-08-17T01:33:11.421Z,99659.09
2022-08-17T01:36:14.131Z,99658.91
2022-08-17T01:39:29.055Z,99671.69
2022-08-17T01:42:35.440Z,99668.00
2022-08-17T01:45:42.301Z,99672.44
2022-08-17T01:48:47.673Z,99664.84
2022-08-17T01:51:50.598Z,99666.78
2022-08-17T01:54:53.536Z,99676.50
2022-08-17T01:57:56.391Z,99667.63
2022-08-17T02:01:00.067Z,99679.50
2022-08-17T02:04:05.543Z,99682.47
2022-08-17T02:07:08.153Z,99683.78
2022-08-17T02:10:19.793Z,99673.66
2022-08-17T02:13:23.371Z,99676.03
2022-08-17T02:16:26.201Z,99681.97
2022-08-17T02:19:31.323Z,99687.34
2022-08-17T02:22:35.552Z,99685.75
2022-08-17T02:25:39.600Z,99687.53
2022-08-17T02:28:42.487Z,99684.22
2022-08-17T02:31:44.973Z,99683.13
2022-08-17T02:34:48.120Z,99682.16
2022-08-17T02:37:51.811Z,99677.78
2022-08-17T02:40:59.230Z,99675.00
2022-08-17T02:44:01.934Z,99676.69
2022-08-17T02:47:04.877Z,99679.84
2022-08-17T02:50:09.169Z,99670.25
2022-08-17T02:53:12.151Z,99681.63
2022-08-17T02:56:14.646Z,99673.34
2022-08-17T02:59:18.341Z,99659.78
2022-08-17T03:02:20.861Z,99681.19
2022-08-17T03:05:26.326Z,99682.34
2022-08-17T03:08:29.716Z,99677.12
2022-08-17T03:11:32.803Z,99687.50
2022-08-17T03:14:42.691Z,99687.72
2022-08-17T03:17:45.528Z,99690.69
2022-08-17T03:20:49.838Z,99691.25
2022-08-17T03:23:54.514Z,99693.41
2022-08-17T03:26:57.276Z,99701.88
2022-08-17T03:30:00.138Z,99692.50
2022-08-17T03:33:04.424Z,99700.16
2022-08-17T03:36:07.505Z,99694.78
2022-08-17T03:39:10.488Z,99703.31
2022-08-17T03:42:31.243Z,99694.34
2022-08-17T03:45:54.990Z,99707.34
2022-08-17T03:49:16.438Z,99700.69
2022-08-17T03:52:37.368Z,99706.03
2022-08-17T03:56:00.357Z,99709.56
2022-08-17T03:59:02.906Z,99705.00
2022-08-17T04:02:09.777Z,99702.28
2022-08-17T04:05:12.694Z,99706.50
2022-08-17T04:08:15.439Z,99708.25
2022-08-17T04:11:18.519Z,99709.06
2022-08-17T04:14:21.310Z,99708.88
2022-08-17T04:17:27.409Z,99715.00
2022-08-17T04:20:33.436Z,99714.13
2022-08-17T04:23:37.912Z,99722.91
2022-08-17T04:26:53.039Z,99725.41
2022-08-17T04:29:57.217Z,99728.63
2022-08-17T04:33:07.265Z,99720.97
2022-08-17T04:36:15.396Z,99721.84
2022-08-17T04:39:19.658Z,99728.53
2022-08-17T04:42:22.457Z,99725.44
2022-08-17T04:45:24.961Z,99725.09
2022-08-17T04:48:38.136Z,99729.19
2022-08-17T04:51:54.450Z,99725.47
2022-08-17T04:54:59.158Z,99726.87
2022-08-17T04:58:01.690Z,99734.63
2022-08-17T05:01:06.034Z,99731.44
2022-08-17T05:04:33.035Z,99733.81
2022-08-17T05:07:34.310Z,99740.38
2022-08-17T05:10:39.131Z,99732.28
2022-08-17T05:13:50.362Z,99738.84
2022-08-17T05:16:53.046Z,99733.87
2022-08-17T05:19:55.971Z,99739.66
2022-08-17T05:23:01.043Z,99739.91
2022-08-17T05:26:04.363Z,99737.03
2022-08-17T05:29:10.419Z,99744.06
2022-08-17T05:32:39.571Z,99735.94
2022-08-17T05:35:38.248Z,99738.47
2022-08-17T05:38:41.536Z,99744.38
2022-08-17T05:41:46.678Z,99731.69
2022-08-17T05:44:49.576Z,99729.00
2022-08-17T05:47:52.182Z,99731.53
2022-08-17T05:51:10.045Z,99734.72
2022-08-17T05:54:49.697Z,99733.56
2022-08-17T05:58:21.754Z,99738.19
2022-08-17T06:01:59.173Z,99739.59
2022-08-17T06:05:26.910Z,99738.84
2022-08-17T06:08:51.693Z,99741.53
2022-08-17T06:12:20.376Z,99739.34
2022-08-17T06:15:33.316Z,99732.69
2022-08-17T06:18:45.823Z,99734.63
2022-08-17T06:21:51.599Z,99728.88
2022-08-17T06:24:57.270Z,99744.84
2022-08-17T06:28:05.176Z,99732.59
2022-08-17T06:31:17.492Z,99738.09
2022-08-17T06:34:20.910Z,99744.59
2022-08-17T06:37:36.374Z,99741.50
2022-08-17T06:41:10.310Z,99736.25
2022-08-17T06:44:43.113Z,99739.47
2022-08-17T06:47:50.034Z,99740.50
2022-08-17T06:51:00.175Z,99746.00
2022-08-17T06:54:08.180Z,99742.59
2022-08-17T06:57:10.919Z,99740.94
2022-08-17T07:00:18.195Z,99747.47
2022-08-17T07:03:28.121Z,99739.94
2022-08-17T07:06:37.771Z,99743.38
2022-08-17T07:09:41.358Z,99745.88
2022-08-17T07:12:44.879Z,99738.84
2022-08-17T07:15:51.814Z,99743.03
2022-08-17T07:18:59.692Z,99748.50
2022-08-17T07:22:16.191Z,99748.31
2022-08-17T07:25:20.797Z,99744.97
2022-08-17T07:28:24.590Z,99746.91
2022-08-17T07:31:30.568Z,99755.97
2022-08-17T07:35:10.649Z,99751.03
2022-08-17T07:38:54.543Z,99737.94
2022-08-17T07:42:04.786Z,99738.38
2022-08-17T07:45:28.028Z,99738.84
2022-08-17T07:48:35.944Z,99745.31
2022-08-17T07:51:56.683Z,99744.47
2022-08-17T07:55:27.545Z,99741.56
2022-08-17T07:58:30.172Z,99739.72
2022-08-17T08:01:39.355Z,99747.59
2022-08-17T08:05:06.683Z,99749.00
2022-08-17T08:08:30.848Z,99746.66
2022-08-17T08:11:37.542Z,99746.91
2022-08-17T08:14:43.643Z,99739.63
2022-08-17T08:17:54.472Z,99744.44
2022-08-17T08:21:07.055Z,99745.28
2022-08-17T08:24:19.622Z,99744.44
2022-08-17T08:27:29.167Z,99739.44
2022-08-17T08:30:40.819Z,99732.50
2022-08-17T08:33:56.761Z,99740.72
2022-08-17T08:37:16.494Z,99741.09
2022-08-17T08:40:32.410Z,99740.91
2022-08-17T08:44:06.561Z,99742.91
2022-08-17T08:47:26.605Z,99743.13
2022-08-17T08:51:02.227Z,99737.84
2022-08-17T08:54:38.722Z,99737.94
2022-08-17T08:57:48.994Z,99728.44
2022-08-17T09:00:56.948Z,99732.31
2022-08-17T09:05:02.655Z,99729.59
2022-08-17T09:08:04.604Z,99733.06
2022-08-17T09:12:02.428Z,99729.88
2022-08-17T09:15:18.624Z,99731.75
2022-08-17T09:19:02.468Z,99739.72
2022-08-17T09:22:14.843Z,99738.12
2022-08-17T09:25:26.343Z,99748.09
2022-08-17T09:28:33.231Z,99740.03
2022-08-17T09:31:49.071Z,99743.97
2022-08-17T09:35:01.582Z,99732.22
2022-08-17T09:38:36.073Z,99725.13
2022-08-17T09:41:49.328Z,99731.38
2022-08-17T09:44:58.530Z,99725.66
2022-08-17T09:48:41.953Z,99725.09
2022-08-17T09:51:49.424Z,99721.47
2022-08-17T09:54:54.002Z,99714.72
2022-08-17T09:58:07.743Z,99719.91
2022-08-17T10:01:39.976Z,99720.31
2022-08-17T10:05:27.915Z,99721.44
2022-08-17T10:08:44.715Z,99713.00
2022-08-17T10:12:30.055Z,99712.22
2022-08-17T10:15:54.028Z,99716.19
2022-08-17T10:19:05.516Z,99706.31
2022-08-17T10:22:47.806Z,99706.25
2022-08-17T10:26:25.300Z,99702.59
2022-08-17T10:29:49.757Z,99694.50
2022-08-17T10:32:56.546Z,99692.03
2022-08-17T10:36:21.821Z,99693.16
2022-08-17T10:39:53.574Z,99697.66
2022-08-17T10:43:39.492Z,99690.22
2022-08-17T10:46:52.378Z,99682.66
2022-08-17T10:49:56.370Z,99680.81
2022-08-17T10:52:59.408Z,99672.66
2022-08-17T10:56:14.143Z,99670.22
2022-08-17T10:59:37.191Z,99670.63
2022-08-17T11:02:49.851Z,99660.34
2022-08-17T11:06:13.097Z,99673.13
2022-08-17T11:09:39.037Z,99669.09
2022-08-17T11:13:02.111Z,99664.59
2022-08-17T11:16:32.713Z,99654.53
2022-08-17T11:19:58.086Z,99656.22
2022-08-17T11:23:12.913Z,99653.75
2022-08-17T11:26:26.118Z,99667.25
2022-08-17T11:29:37.479Z,99662.66
2022-08-17T11:32:47.585Z,99657.78
2022-08-17T11:36:07.917Z,99656.53
2022-08-17T11:39:23.554Z,99652.41
2022-08-17T11:42:32.112Z,99650.53
2022-08-17T11:45:45.938Z,99643.72
2022-08-17T11:49:06.920Z,99643.94
2022-08-17T11:52:38.250Z,99632.44
2022-08-17T11:55:44.824Z,99635.97
2022-08-17T11:58:48.645Z,99627.53
2022-08-17T12:01:55.819Z,99631.44
2022-08-17T12:05:28.168Z,99610.09
2022-08-17T12:08:32.756Z,99618.41
2022-08-17T12:12:14.341Z,99621.56
2022-08-17T12:15:25.738Z,99611.41
2022-08-17T12:18:35.773Z,99603.38
2022-08-17T12:21:46.329Z,99611.56
2022-08-17T12:25:05.021Z,99621.81
2022-08-17T12:28:47.130Z,99612.78
2022-08-17T12:31:52.150Z,99608.56
2022-08-17T12:34:54.817Z,99611.22
2022-08-17T12:37:58.010Z,99600.47
2022-08-17T12:41:21.238Z,99592.75
2022-08-17T12:44:28.254Z,99594.00
2022-08-17T12:47:31.926Z,99587.63
2022-08-17T12:50:41.268Z,99597.06
2022-08-17T12:53:52.587Z,99588.75
2022-08-17T12:57:02.853Z,99599.94
2022-08-17T13:00:16.514Z,99590.91
2022-08-17T13:03:23.004Z,99583.66
2022-08-17T13:06:33.876Z,99592.03
2022-08-17T13:09:40.478Z,99588.94
2022-08-17T13:12:43.348Z,99572.50
2022-08-17T13:15:55.742Z,99569.41
2022-08-17T13:19:15.983Z,99577.47
2022-08-17T13:22:23.197Z,99569.22
2022-08-17T13:25:26.874Z,99569.88
2022-08-17T13:28:35.817Z,99578.47
2022-08-17T13:31:52.076Z,99569.00
2022-08-17T13:35:11.760Z,99570.22
2022-08-17T13:38:45.694Z,99566.06
2022-08-17T13:41:50.329Z,99564.81
2022-08-17T13:44:52.827Z,99561.84
2022-08-17T13:48:22.378Z,99561.34
2022-08-17T13:51:27.885Z,99562.41
2022-08-17T13:54:35.568Z,99556.94
2022-08-17T13:57:38.180Z,99548.69
2022-08-17T14:00:41.660Z,99564.66
2022-08-17T14:03:44.538Z,99555.06
2022-08-17T14:07:12.955Z,99559.81
2022-08-17T14:10:18.385Z,99553.72
2022-08-17T14:13:21.288Z,99558.37
2022-08-17T14:16:24.112Z,99554.34
2022-08-17T14:19:27.000Z,99562.34
2022-08-17T14:22:32.763Z,99557.88
2022-08-17T14:25:35.604Z,99552.84
2022-08-17T14:28:38.906Z,99546.16
2022-08-17T14:31:58.679Z,99551.66
2022-08-17T14:35:02.828Z,99546.53
2022-08-17T14:38:06.083Z,99546.69
2022-08-17T14:41:08.874Z,99546.13
2022-08-17T14:44:12.621Z,99548.09
2022-08-17T14:47:15.997Z,99553.81
2022-08-17T14:50:19.626Z,99549.59
2022-08-17T14:53:22.585Z,99551.09
2022-08-17T14:56:26.136Z,99552.22
2022-08-17T14:59:29.022Z,99548.94
2022-08-17T15:02:43.484Z,99548.94
2022-08-17T15:05:46.915Z,99550.50
2022-08-17T15:08:49.749Z,99555.56
2022-08-17T15:11:53.893Z,99540.81
2022-08-17T15:14:57.131Z,99550.53
2022-08-17T15:18:02.585Z,99554.91
2022-08-17T15:21:07.478Z,99558.56
2022-08-17T15:24:10.563Z,99557.19
2022-08-17T15:27:13.085Z,99544.81
2022-08-17T15:30:17.021Z,99551.25
2022-08-17T15:33:29.234Z,99550.94
2022-08-17T15:36:33.265Z,99551.66
2022-08-17T15:39:35.859Z,99545.06
2022-08-17T15:42:41.193Z,99541.25
2022-08-17T15:45:43.995Z,99537.03
2022-08-17T15:48:49.388Z,99540.94
2022-08-17T15:51:51.887Z,99535.69
2022-08-17T15:55:00.153Z,99532.59
2022-08-17T15:58:03.181Z,99529.59
2022-08-17T16:01:16.511Z,99537.63
2022-08-17T16:04:26.820Z,99536.41
2022-08-17T16:07:33.827Z,99546.00
2022-08-17T16:10:36.855Z,99542.19
2022-08-17T16:13:40.820Z,99540.47
2022-08-17T16:16:43.656Z,99534.56
2022-08-17T16:19:46.383Z,99528.69
2022-08-17T16:22:50.398Z,99530.41
2022-08-17T16:25:54.375Z,99531.97
2022-08-17T16:28:58.795Z,99537.00
2022-08-17T16:32:14.968Z,99536.84
2022-08-17T16:35:18.649Z,99543.09
2022-08-17T16:38:22.315Z,99542.41
2022-08-17T16:41:44.376Z,99548.47
2022-08-17T16:44:46.886Z,99549.84
2022-08-17T16:47:50.288Z,99539.72
2022-08-17T16:51:03.316Z,99543.16
2022-08-17T16:54:07.475Z,99554.75
2022-08-17T16:57:11.213Z,99551.37
2022-08-17T17:00:15.803Z,99548.72
2022-08-17T17:03:20.990Z,99550.63
2022-08-17T17:06:48.523Z,99554.62
2022-08-17T17:09:52.708Z,99552.09
2022-08-17T17:13:01.130Z,99546.84
2022-08-17T17:16:18.407Z,99555.16
2022-08-17T17:19:34.947Z,99552.63
2022-08-17T17:22:55.488Z,99552.41
2022-08-17T17:26:48.391Z,99544.13
2022-08-17T17:29:50.876Z,99547.44
2022-08-17T17:33:10.625Z,99541.00
2022-08-17T17:36:23.120Z,99548.53
2022-08-17T17:39:49.098Z,99547.06
2022-08-17T17:42:55.134Z,99553.56
2022-08-17T17:46:27.742Z,99560.06
2022-08-17T17:49:46.049Z,99552.44
2022-08-17T17:53:17.422Z,99564.69
2022-08-17T17:56:50.050Z,99566.06
2022-08-17T18:00:24.324Z,99563.47
2022-08-17T18:04:00.829Z,99560.50
2022-08-17T18:07:12.390Z,99567.22
2022-08-17T18:10:41.968Z,99568.13
2022-08-17T18:13:54.189Z,99576.84
2022-08-17T18:16:59.363Z,99567.41
2022-08-17T18:20:03.947Z,99573.38
2022-08-17T18:23:07.469Z,99571.78
2022-08-17T18:26:10.195Z,99576.72
2022-08-17T18:29:35.974Z,99581.13
2022-08-17T18:32:46.487Z,99583.44
2022-08-17T18:35:58.674Z,99595.31
2022-08-17T18:39:19.206Z,99592.38
2022-08-17T18:42:27.726Z,99594.66
2022-08-17T18:45:33.806Z,99597.81
2022-08-17T18:48:51.160Z,99601.94
2022-08-17T18:52:14.384Z,99602.63
2022-08-17T18:55:27.891Z,99604.06
2022-08-17T18:58:30.556Z,99604.87
2022-08-17T19:02:20.599Z,99601.22
2022-08-17T19:05:35.117Z,99602.91
2022-08-17T19:08:38.026Z,99603.72
2022-08-17T19:11:41.159Z,99600.62
2022-08-17T19:14:44.177Z,99605.41
2022-08-17T19:18:04.002Z,99596.22
2022-08-17T19:21:13.068Z,99604.28
2022-08-17T19:24:22.215Z,99607.84
2022-08-17T19:27:41.680Z,99599.97
2022-08-17T19:30:45.029Z,99595.38
2022-08-17T19:33:48.680Z,99595.41
2022-08-17T19:37:00.286Z,99593.69
2022-08-17T19:40:41.728Z,99595.06
2022-08-17T19:43:57.952Z,99602.00
2022-08-17T19:47:54.344Z,99592.00
2022-08-17T19:51:04.789Z,99601.03
2022-08-17T19:54:31.489Z,99586.66
2022-08-17T19:57:57.064Z,99589.06
2022-08-17T20:01:00.937Z,99597.94
2022-08-17T20:04:13.151Z,99594.28
2022-08-17T20:07:20.401Z,99602.53
2022-08-17T20:10:47.359Z,99598.75
2022-08-17T20:14:08.350Z,99600.75
2022-08-17T20:17:12.182Z,99596.97
2022-08-17T20:20:38.406Z,99604.09
2022-08-17T20:24:14.429Z,99602.13
2022-08-17T20:27:31.597Z,99596.13
2022-08-17T20:30:40.987Z,99597.28
2022-08-17T20:33:43.905Z,99596.13
2022-08-17T20:37:08.572Z,99595.91
2022-08-17T20:40:17.731Z,99600.25
2022-08-17T20:43:32.774Z,99599.38
2022-08-17T20:46:38.429Z,99595.13
2022-08-17T20:49:41.396Z,99597.50
2022-08-17T20:52:58.284Z,99600.47
2022-08-17T20:56:01.116Z,99605.53
2022-08-17T20:59:03.800Z,99608.81
2022-08-17T21:02:12.410Z,99605.16
2022-08-17T21:05:57.392Z,99611.56
2022-08-17T21:09:12.675Z,99621.16
2022-08-17T21:12:42.043Z,99623.78
2022-08-17T21:16:03.120Z,99625.97
2022-08-17T21:19:16.953Z,99631.59
2022-08-17T21:22:34.264Z,99635.69
2022-08-17T21:25:58.218Z,99646.31
2022-08-17T21:29:30.144Z,99658.84
2022-08-17T21:32:30.375Z,99658.25
2022-08-17T21:35:54.414Z,99658.69
2022-08-17T21:39:10.332Z,99660.25
2022-08-17T21:42:13.169Z,99664.50
2022-08-17T21:45:27.472Z,99658.75
2022-08-17T21:48:32.484Z,99661.72
2022-08-17T21:51:37.136Z,99669.38
2022-08-17T21:54:44.450Z,99673.59
2022-08-17T21:57:53.066Z,99681.84
2022-08-17T22:01:26.460Z,99687.00
2022-08-17T22:04:32.945Z,99692.19
2022-08-17T22:07:44.364Z,99681.78
2022-08-17T22:10:50.651Z,99688.37
2022-08-17T22:14:05.208Z,99692.44
2022-08-17T22:17:19.127Z,99690.91
2022-08-17T22:20:22.295Z,99690.91
2022-08-17T22:23:54.418Z,99693.94
2022-08-17T22:27:03.069Z,99690.53
2022-08-17T22:30:25.849Z,99686.06
2022-08-17T22:33:47.969Z,99695.97
2022-08-17T22:37:20.811Z,99692.00
2022-08-17T22:40:32.641Z,99696.56
2022-08-17T22:43:38.212Z,99682.09
2022-08-17T22:47:17.057Z,99691.88
2022-08-17T22:50:26.475Z,99686.03
2022-08-17T22:53:47.665Z,99692.50
2022-08-17T22:57:18.724Z,99682.72
2022-08-17T23:00:29.267Z,99685.91
2022-08-17T23:03:32.076Z,99682.25
2022-08-17T23:06:36.241Z,99686.44
2022-08-17T23:09:39.435Z,99686.66
2022-08-17T23:12:42.301Z,99679.50
2022-08-17T23:15:45.956Z,99671.59
2022-08-17T23:18:52.205Z,99669.19
2022-08-17T23:21:56.615Z,99669.84
2022-08-17T23:24:59.864Z,99659.88
2022-08-17T23:28:05.461Z,99662.81
2022-08-17T23:31:07.988Z,99652.16
2022-08-17T23:34:13.272Z,99649.00
2022-08-17T23:37:20.477Z,99654.09
2022-08-17T23:40:23.895Z,99653.44
2022-08-17T23:43:28.375Z,99652.75
2022-08-17T23:46:31.263Z,99654.19
2022-08-17T23:49:34.009Z,99655.94
2022-08-17T23:52:37.938Z,99653.22
2022-08-17T23:55:40.422Z,99652.50
2022-08-17T23:58:44.871Z,99650.19
